• Join FlightAware (Why Join?)
  • Login
  • US Flag 
06:03AM EDT


 

Airport Tracker/Info


-or-


 

Live Flight TrackerFlight Track Log ✈ SWA3608 ✈ 12-Apr-2013 ✈ KTUS - KLAX

Flight Track Log - Related Links

Times and Time Zones

All times are in EDT time to prevent confusion due to time zone crossing. See the SWA3608 flight status page for this flight to view local times or setup timezone preferences in your user account.

Time Position Orientation Groundspeed Altitude Reporting Facility
EDT Latitude Longitude Course Direction KTS MPH feet Rate Location/Type
12:20AM 32.0558 -110.8897 150° Southeast 193 222 5,900  Level Albuquerque Center
12:20AM 32.0450 -110.9144 243° Southwest 216 249 7,000 2,400 Climbing Albuquerque Center
12:21AM 32.0558 -110.9553 287° West 231 266 8,400 2,640 Climbing Albuquerque Center
12:21AM 32.0769 -110.9869 308° West 254 292 9,700 3,120 Climbing Albuquerque Center
12:22AM 32.1222 -111.0706 303° West 290 334 13,100 3,300 Climbing Albuquerque Center
12:23AM 32.1744 -111.1686 302° West 338 389 16,500 3,240 Climbing Albuquerque Center
12:24AM 32.2297 -111.2722 302° West 365 420 19,700 3,120 Climbing Albuquerque Center
12:25AM 32.2881 -111.3831 302° West 387 445 22,900 2,940 Climbing Albuquerque Center
12:26AM 32.3478 -111.4961 302° West 400 460 25,700 2,580 Climbing Albuquerque Center
12:27AM 32.4086 -111.6122 302° West 410 472 28,200 2,340 Climbing Albuquerque Center
12:28AM 32.4700 -111.7319 301° West 421 484 30,500 2,160 Climbing Albuquerque Center
12:29AM 32.5322 -111.8528 301° West 426 490 32,600 1,980 Climbing Albuquerque Center
12:30AM 32.5958 -111.9711 303° West 426 490 34,600 1,920 Climbing Albuquerque Center
12:31AM 32.6578 -112.0919 301° West 427 491 36,600 1,680 Climbing Albuquerque Center
12:32AM 32.7192 -112.2097 302° West 423 487 38,100 1,320 Climbing Albuquerque Center
12:33AM 32.7800 -112.3292 301° West 422 486 39,400 900 Climbing Albuquerque Center
12:34AM 32.8411 -112.4469 302° West 421 484 40,000 240 Climbing Albuquerque Center
12:35AM 32.9128 -112.5883 301° West 419 482 39,900  Descending Albuquerque Center
12:36AM 32.9753 -112.7008 304° West 415 478 40,000  Climbing Albuquerque Center
12:37AM 33.0531 -112.8006 313° West 412 474 40,000  Level Albuquerque Center
12:38AM 33.1289 -112.9019 312° West 413 475 40,000  Level Albuquerque Center
12:39AM 33.2067 -113.0039 312° West 416 479 40,000  Level Albuquerque Center
12:40AM 33.2850 -113.1100 311° West 423 487 40,000  Level Albuquerque Center
12:41AM 33.3639 -113.2131 313° West 423 487 40,000  Level Albuquerque Center
12:42AM 33.4406 -113.3161 312° West 418 481 40,000 -60 Level Albuquerque Center
12:44AM 33.5167 -113.4192 312° West 415 478 39,900 -1,140 Descending Albuquerque Center
12:45AM 33.5900 -113.5192 311° West 406 467 37,800 -2,460 Descending Albuquerque Center
12:46AM 33.6672 -113.6208 312° West 390 449 35,000 -1,920 Descending Albuquerque Center
12:47AM 33.7419 -113.7217 312° West 398 458 34,000 -540 Descending Albuquerque Center
12:48AM 33.8092 -113.8333 306° West 410 472 34,000  Level Albuquerque Center
12:49AM 33.8556 -113.9617 294° West 418 481 34,000  Level Albuquerque Center
12:50AM 33.8856 -114.0997 285° West 425 489 34,000  Level Albuquerque Center
12:51AM 33.9058 -114.2569 279° West 429 494 34,000  Level Albuquerque Center
12:52AM 33.9258 -114.3958 280° West 425 489 34,000 -300 Level Albuquerque Center
12:53AM 33.9444 -114.5283 280° West 410 472 33,400 -960 Descending Albuquerque Center
12:54AM 33.9650 -114.6686 280° West 391 450 32,000 -720 Descending Los Angeles Center
12:55AM 33.9822 -114.7969 279° West 389 448 32,000  Level Los Angeles Center
12:56AM 34.0008 -114.9256 280° West 391 450 32,000  Level Los Angeles Center
12:57AM 34.0183 -115.0542 279° West 391 450 32,000  Level Los Angeles Center
12:58AM 34.0356 -115.1817 279° West 389 448 32,000  Level Los Angeles Center
12:59AM 34.0528 -115.3103 279° West 390 449 32,000  Level Los Angeles Center
01:00AM 34.0736 -115.4672 279° West 395 455 32,000 -60 Level Los Angeles Center
01:01AM 34.0900 -115.5989 279° West 397 457 31,900 -600 Descending Los Angeles Center
01:02AM 34.1067 -115.7297 279° West 397 457 30,800 -1,080 Descending Los Angeles Center
01:03AM 34.0994 -115.8611 266° West 398 458 29,800 -1,020 Descending Los Angeles Center
01:04AM 34.0789 -115.9919 259° West 400 460 28,800 -1,020 Descending Los Angeles Center
01:05AM 34.0606 -116.1225 260° West 397 457 27,800 -1,020 Descending Los Angeles Center
01:06AM 34.0406 -116.2478 259° West 386 444 26,800 -960 Descending Los Angeles Center
01:07AM 34.0222 -116.3753 260° West 388 447 25,900 -960 Descending Los Angeles Center
01:08AM 34.0036 -116.5053 260° West 396 456 24,900 -1,080 Descending Los Angeles Center
01:09AM 33.9919 -116.6586 265° West 386 444 23,700 -1,440 Descending Los Angeles Center
01:10AM 33.9819 -116.7822 264° West 375 432 22,000 -1,920 Descending Los Angeles Center
01:11AM 33.9667 -116.9000 261° West 350 403 19,900 -2,100 Descending Southern California TRACON
01:12AM 33.9667 -117.0167 270° West 338 389 17,900 -1,500 Descending Southern California TRACON
01:13AM 33.9500 -117.1333 260° West 327 376 17,000 -540 Descending Southern California TRACON
01:14AM 33.9500 -117.2333 270° West 314 361 16,900 -780 Descending Southern California TRACON
01:15AM 33.9333 -117.3333 259° West 304 350 15,500 -1,560 Descending Southern California TRACON
01:16AM 33.9500 -117.4333 281° West 289 333 13,800 -1,800 Descending Southern California TRACON
01:17AM 33.9833 -117.5167 296° West 316 364 12,000 -1,740 Descending Southern California TRACON
01:18AM 34.0167 -117.6167 292° West 379 436 10,400 -1,140 Descending Southern California TRACON
01:19AM 34.0167 -117.7167 270° West 267 307 9,800 -960 Descending Southern California TRACON
01:20AM 34.0167 -117.8000 270° West 268 308 8,600 -1,320 Descending Southern California TRACON
01:21AM 34.0000 -117.9000 259° West 274 315 7,300 -1,200 Descending Southern California TRACON
01:22AM 34.0000 -117.9833 270° West 256 295 6,300 -900 Descending Southern California TRACON
01:23AM 33.9833 -118.0500 253° West 220 253 5,500 -780 Descending Southern California TRACON
01:24AM 33.9833 -118.1167 270° West 192 221 4,800 -780 Descending Southern California TRACON
01:24AM 33.9783 -118.1450 258° West 198 228 4,400 -1,020 Descending Los Angeles Center
01:25AM 33.9722 -118.2075 263° West 191 220 3,400 -1,080 Descending Los Angeles Center
01:26AM 33.9664 -118.2697 264° West 189 217 2,300 -1,020 Descending Los Angeles Center
01:27AM 33.9606 -118.3242 263° West 176 203 1,400 -840 Descending Los Angeles Center
01:28AM 33.9569 -118.3681 264° West 147 169 700 -600 Descending Los Angeles Center
01:29AM 33.9531 -118.4150 264° West 138 159 200 -540 Descending Los Angeles Center
01:31AM 33.9425 -118.4081 180° South  Level Estimated
01:38AM 33.9425 -118.4081 180° South  Level Estimated